Vidette, Georgia
Current Conditions -  °F | °C
As of 3:55 PM on Thursday 23 Oct 2014 (Local Time) from KOKZ Reporting Station
Clear Clear  
Wind Chill: 69°   Ceiling: Unl
Heat Index: 69°   Visibility: 10mi
Dew Point: 45°   Wind: 0mph
Humidity: 42%   Direction: NA
Pressure: 30.04"   Gusts: NA
Location:  33.028°N, 82.379°W
Report Text: KOKZ 231955Z AUTO 00000KT 10SM CLR 21/07 A3004 RMK AO2 T02050073
Loading
Personal Weather Stations






























Interactive Weather Map
Tropical Storm Tracking
New forecast layout! Learn more

10-Day Weather Forecast

Advertisements
Track Severe Weather on mobile